Weather History for Carmi, IL

Change the Weather History Date:

Friday, February 1, 2013

  Actual Average (KEVV) Record (KEVV)
Temperature  
Mean Temperature 20 °F 33 °F  
Max Temperature 27 °F 42 °F 71 °F (1911)
Min Temperature 12 °F 25 °F -5 °F (1951)
Degree Days  
Heating Degree Days 46 32  
Month to date heating degree days 32  
Since 1 July heating degree days 2811  
Cooling Degree Days 0 0  
Month to date cooling degree days 0  
Year to date cooling degree days 0  
Moisture  
Dew Point 10 °F    
Average Humidity 64    
Maximum Humidity 72    
Minimum Humidity 54    
Precipitation  
Precipitation 0.00 in 0.12 in 2.07 in (1988)
Month to date precipitation 0.12  
Year to date precipitation 3.22  
Snow  
Snow 0.00 in 0.10 in 8.50 in (1966)
Month to date snowfall 0.1  
Since 1 July snowfall 7.0  
Snow Depth -    
Sea Level Pressure  
Sea Level Pressure 30.42 in    
Wind  
Wind Speed 12 mph (WSW)    
Max Wind Speed 23 mph    
Max Gust Speed 33 mph    
Visibility 10 miles    
Events      
T = Trace of Precipitation, MM = Missing Value Source: NWS Daily Summary

Daily Weather History Graph

Daily Weather History Graph

Search for Another Location

Airport:

Trip Planner

Search our weather history database for the weather conditions in past years. The results will help you decide how hot, cold, wet, or windy it might be!

Date:

Astronomy

Feb. 01, 2013 Rise Set
Actual Time 6:56 AM CST 5:15 PM CST
Civil Twilight 6:29 AM CST 5:43 PM CST
Nautical Twilight 5:57 AM CST 6:15 PM CST
Astronomical Twilight 5:26 AM CST 6:46 PM CST
Moon 11:15 PM CST (2/1) 9:36 AM CST (2/1)
Length of Visible Light 11h 14m
Length of Day
10h 18m
Waning Gibbous, 70% of the Moon is Illuminated
Feb 1
Waning Gibbous
Feb 3
Last Quarter
Feb 10
New
Feb 17
First Quarter
Feb 25
Full

Hourly Weather History & Observations

Time (CST) Temp. Windchill Dew Point Humidity Pressure Visibility Wind Dir Wind Speed Gust Speed Precip Events Conditions
12:15 AM 19.6 °F 3.9 °F 10.0 °F 66% 30.32 in 10.0 mi WNW 19.6 mph 33.4 mph N/A   Mostly Cloudy
12:35 AM 17.6 °F 0.1 °F 5.2 °F 58% 30.35 in 10.0 mi WNW 23.0 mph 31.1 mph N/A   Scattered Clouds
12:55 AM 17.1 °F -0.3 °F 6.4 °F 63% 30.35 in 10.0 mi WNW 21.9 mph 27.6 mph N/A   Clear
1:15 AM 16.7 °F -0.7 °F 6.6 °F 65% 30.36 in 10.0 mi NW 21.9 mph 25.3 mph N/A   Clear
1:35 AM 15.8 °F 0.3 °F 5.7 °F 64% 30.37 in 10.0 mi NW 16.1 mph 24.2 mph N/A   Clear
1:55 AM 14.9 °F 1.6 °F 5.7 °F 67% 30.38 in 10.0 mi NW 11.5 mph 16.1 mph N/A   Clear
2:15 AM 14.9 °F 2.3 °F 5.2 °F 65% 30.38 in 10.0 mi NW 10.4 mph - N/A   Clear
2:35 AM 14.9 °F 3.1 °F 6.3 °F 69% 30.39 in 10.0 mi NW 9.2 mph - N/A   Mostly Cloudy
2:55 AM 15.8 °F -0.2 °F 6.6 °F 67% 30.39 in 10.0 mi WNW 17.3 mph 21.9 mph N/A   Overcast
3:15 AM 14.9 °F -1.3 °F 5.4 °F 66% 30.40 in 10.0 mi WNW 17.3 mph 23.0 mph N/A   Mostly Cloudy
3:35 AM 14.5 °F -1.3 °F 5.0 °F 66% 30.40 in 10.0 mi WNW 16.1 mph - N/A   Clear
3:55 AM 14.4 °F 0.2 °F 5.4 °F 67% 30.40 in 10.0 mi NW 12.7 mph - N/A   Clear
4:15 AM 14.0 °F -2.0 °F 4.6 °F 66% 30.40 in 10.0 mi NW 16.1 mph - N/A   Clear
4:35 AM 13.6 °F -1.9 °F 4.3 °F 66% 30.41 in 10.0 mi NW 15.0 mph 18.4 mph N/A   Clear
4:55 AM 13.5 °F -0.9 °F 4.6 °F 68% 30.41 in 10.0 mi NW 12.7 mph - N/A   Clear
5:15 AM 13.1 °F -1.4 °F 4.1 °F 67% 30.42 in 10.0 mi NNW 12.7 mph - N/A   Clear
5:35 AM 12.7 °F -1.1 °F 4.1 °F 68% 30.43 in 10.0 mi NNW 11.5 mph - N/A   Clear
6:15 AM 12.6 °F 2.2 °F 4.3 °F 69% 30.44 in 10.0 mi NW 6.9 mph - N/A   Clear
6:35 AM 12.7 °F 1.4 °F 4.6 °F 70% 30.45 in 10.0 mi WNW 8.1 mph - N/A   Clear
6:55 AM 12.7 °F 3.6 °F 4.8 °F 71% 30.46 in 10.0 mi West 5.8 mph - N/A   Clear
7:15 AM 12.9 °F 3.8 °F 5.4 °F 72% 30.47 in 10.0 mi WNW 5.8 mph - N/A   Clear
7:35 AM 13.5 °F 1.3 °F 6.1 °F 72% 30.48 in 10.0 mi West 9.2 mph - N/A   Clear
7:55 AM 13.6 °F 2.5 °F 5.9 °F 71% 30.48 in 10.0 mi West 8.1 mph - N/A   Clear
8:15 AM 14.2 °F 1.4 °F 6.3 °F 71% 30.49 in 10.0 mi West 10.4 mph - N/A   Clear
8:35 AM 14.5 °F 1.1 °F 6.3 °F 70% 30.50 in 10.0 mi West 11.5 mph - N/A   Clear
8:55 AM 15.1 °F 2.5 °F 6.4 °F 69% 30.51 in 10.0 mi WSW 10.4 mph - N/A   Clear
9:15 AM 15.6 °F 1.8 °F 5.5 °F 64% 30.51 in 10.0 mi West 12.7 mph - N/A   Clear
9:35 AM 16.2 °F 3.9 °F 6.4 °F 66% 30.51 in 10.0 mi West 10.4 mph - N/A   Clear
9:55 AM 16.7 °F 4.5 °F 5.7 °F 62% 30.52 in 10.0 mi West 10.4 mph - N/A   Clear
10:15 AM 17.1 °F 5.8 °F 5.7 °F 61% 30.53 in 10.0 mi West 9.2 mph - N/A   Clear
10:35 AM 18.1 °F 5.0 °F 7.3 °F 63% 30.53 in 10.0 mi West 12.7 mph - N/A   Clear
10:55 AM 18.5 °F 8.4 °F 7.2 °F 61% 30.52 in 10.0 mi WSW 8.1 mph - N/A   Clear
11:15 AM 19.0 °F 12.3 °F 5.4 °F 55% 30.52 in 10.0 mi West 4.6 mph - N/A   Clear
11:35 AM 19.8 °F 9.9 °F 6.3 °F 56% 30.51 in 10.0 mi West 8.1 mph - N/A   Clear
11:55 AM 19.9 °F 12.1 °F 6.4 °F 56% 30.49 in 10.0 mi WNW 5.8 mph - N/A   Clear
12:15 PM 21.4 °F 11.9 °F 9.1 °F 59% 30.48 in 10.0 mi WSW 8.1 mph - N/A   Clear
12:35 PM 21.7 °F 15.5 °F 9.1 °F 58% 30.47 in 10.0 mi SSW 4.6 mph - N/A   Clear
12:55 PM 22.3 °F 16.1 °F 9.3 °F 58% 30.47 in 10.0 mi West 4.6 mph - N/A   Clear
1:15 PM 22.6 °F 14.3 °F 9.5 °F 57% 30.45 in 10.0 mi SW 6.9 mph - N/A   Clear
1:35 PM 23.7 °F 16.6 °F 10.0 °F 56% 30.45 in 10.0 mi SW 5.8 mph - N/A   Clear
1:55 PM 23.7 °F 16.6 °F 11.1 °F 59% 30.44 in 10.0 mi WSW 5.8 mph - N/A   Clear
2:15 PM 23.7 °F 17.8 °F 10.2 °F 56% 30.43 in 10.0 mi SW 4.6 mph - N/A   Clear
2:35 PM 24.3 °F 16.3 °F 10.4 °F 56% 30.43 in 10.0 mi SW 6.9 mph - N/A   Clear
2:55 PM 24.4 °F 15.6 °F 9.9 °F 54% 30.43 in 10.0 mi SW 8.1 mph - N/A   Clear
3:15 PM 24.8 °F 17.9 °F 10.2 °F 54% 30.43 in 10.0 mi SSW 5.8 mph - N/A   Clear
3:35 PM 25.2 °F 18.3 °F 10.4 °F 54% 30.42 in 10.0 mi SW 5.8 mph - N/A   Clear
3:55 PM 25.2 °F 16.5 °F 10.9 °F 55% 30.42 in 10.0 mi SW 8.1 mph - N/A   Clear
4:15 PM 25.3 °F 17.6 °F 10.6 °F 54% 30.42 in 10.0 mi SSW 6.9 mph - N/A   Clear
4:35 PM 25.0 °F 17.1 °F 11.8 °F 57% 30.40 in 10.0 mi SSW 6.9 mph - N/A   Clear
4:55 PM 24.4 °F 17.5 °F 11.7 °F 58% 30.40 in 10.0 mi SSW 5.8 mph - N/A   Clear
5:15 PM 24.4 °F 18.6 °F 12.0 °F 59% 30.39 in 10.0 mi South 4.6 mph - N/A   Scattered Clouds
5:35 PM 24.4 °F 17.5 °F 13.1 °F 62% 30.39 in 10.0 mi South 5.8 mph - N/A   Mostly Cloudy
5:55 PM 24.6 °F 17.7 °F 12.7 °F 61% 30.38 in 10.0 mi South 5.8 mph - N/A   Scattered Clouds
6:15 PM 24.4 °F 16.5 °F 13.5 °F 63% 30.40 in 10.0 mi South 6.9 mph - N/A   Clear
6:35 PM 24.4 °F 18.6 °F 13.8 °F 64% 30.40 in 10.0 mi SSW 4.6 mph - N/A   Clear
6:55 PM 24.3 °F 18.4 °F 14.9 °F 68% 30.39 in 10.0 mi South 4.6 mph - N/A   Clear
7:15 PM 24.8 °F 19.1 °F 15.4 °F 68% 30.38 in 10.0 mi SSE 4.6 mph - N/A   Clear
7:35 PM 25.2 °F 18.3 °F 15.3 °F 66% 30.37 in 10.0 mi SE 5.8 mph - N/A   Mostly Cloudy
7:55 PM 25.2 °F 18.3 °F 14.7 °F 65% 30.37 in 10.0 mi SE 5.8 mph - N/A   Overcast
8:15 PM 25.5 °F 18.7 °F 16.2 °F 68% 30.37 in 10.0 mi SE 5.8 mph - N/A   Mostly Cloudy
8:35 PM 25.7 °F 18.0 °F 16.0 °F 67% 30.36 in 10.0 mi SSE 6.9 mph - N/A   Overcast
8:55 PM 25.9 °F 17.4 °F 17.2 °F 70% 30.35 in 10.0 mi SSE 8.1 mph - N/A   Mostly Cloudy
9:15 PM 26.4 °F 18.0 °F 18.1 °F 71% 30.35 in 10.0 mi South 8.1 mph - N/A   Mostly Cloudy
9:35 PM 26.8 °F 19.3 °F 18.3 °F 70% 30.34 in 10.0 mi South 6.9 mph - N/A   Overcast
9:55 PM 27.1 °F 16.9 °F 16.5 °F 64% 30.33 in 10.0 mi South 11.5 mph - N/A   Overcast
10:15 PM 27.1 °F 16.9 °F 16.3 °F 64% 30.32 in 10.0 mi South 11.5 mph - N/A   Overcast
10:35 PM 27.3 °F 16.6 °F 16.5 °F 64% 30.32 in 10.0 mi South 12.7 mph - N/A   Overcast
10:55 PM 27.3 °F 17.7 °F 16.5 °F 64% 30.32 in 10.0 mi SSW 10.4 mph - N/A   Overcast
11:15 PM 27.5 °F 18.6 °F 17.4 °F 66% 30.32 in 10.0 mi SSW 9.2 mph - N/A   Overcast
11:35 PM 27.5 °F 18.6 °F 16.7 °F 64% 30.32 in 10.0 mi SSW 9.2 mph - N/A   Overcast
11:55 PM 27.5 °F 18.6 °F 16.9 °F 64% 30.31 in 10.0 mi SSW 9.2 mph - N/A   Overcast